Time;durP1;ratioP1;P1;durP2;ratioP2;P2;SDS_P1;SDS_P2;PMS_P1;PMS_P2;Temp;Humidity;BMP_temperature;BMP_pressure;BME280_temperature;BME280_humidity;BME280_pressure;Samples;Min_cycle;Max_cycle;Signal;HPM_P1;HPM_P2
2023/07/18 00:00:14;;;;;;;6.83;2.57;;;19.70;62.20;;;;;;5034645;28;20466;-81
2023/07/18 00:02:42;;;;;;;3.97;1.77;;;19.70;62.50;;;;;;5029936;28;20455;-80
2023/07/18 00:05:12;;;;;;;4.57;2.40;;;19.70;61.50;;;;;;5028990;28;20697;-81
2023/07/18 00:07:39;;;;;;;5.60;2.50;;;19.60;63.10;;;;;;5024313;28;20459;-79
2023/07/18 00:10:05;;;;;;;4.90;2.57;;;19.60;62.50;;;;;;5036536;28;20544;-80
2023/07/18 00:12:30;;;;;;;3.83;1.90;;;19.50;63.50;;;;;;5037277;28;20491;-79
2023/07/18 00:14:56;;;;;;;4.97;1.93;;;19.50;63.20;;;;;;5036872;28;20498;-84
2023/07/18 00:17:22;;;;;;;4.47;2.20;;;19.50;63.70;;;;;;5026496;28;20187;-81
2023/07/18 00:19:50;;;;;;;6.20;2.50;;;19.50;63.40;;;;;;5030558;28;20240;-81
2023/07/18 00:22:15;;;;;;;5.23;2.70;;;19.50;64.70;;;;;;5035470;28;20190;-78
2023/07/18 00:24:41;;;;;;;4.57;2.40;;;19.50;64.50;;;;;;5030829;28;20416;-78
2023/07/18 00:27:06;;;;;;;4.30;1.93;;;19.40;63.90;;;;;;5028141;28;20193;-77
2023/07/18 00:29:32;;;;;;;4.60;2.07;;;19.40;63.40;;;;;;5031810;28;20182;-81
2023/07/18 00:31:58;;;;;;;2.53;1.73;;;19.30;63.20;;;;;;5048196;28;20213;-82
2023/07/18 00:34:23;;;;;;;3.50;2.20;;;19.20;63.90;;;;;;5043908;28;20194;-79
2023/07/18 00:36:55;;;;;;;7.00;3.07;;;19.20;65.00;;;;;;5030994;28;20234;-82
2023/07/18 00:39:20;;;;;;;5.03;2.73;;;19.30;65.10;;;;;;5034358;28;20265;-80
2023/07/18 00:41:46;;;;;;;7.03;2.47;;;19.20;65.10;;;;;;5033880;28;20481;-82
2023/07/18 00:44:12;;;;;;;3.90;1.93;;;19.20;64.80;;;;;;5030317;28;20189;-82
2023/07/18 00:46:37;;;;;;;3.10;1.60;;;19.10;64.50;;;;;;5025104;28;20198;-78
2023/07/18 00:49:03;;;;;;;4.67;1.80;;;19.00;63.70;;;;;;5041665;28;20190;-79
2023/07/18 00:51:30;;;;;;;3.10;1.70;;;19.00;63.40;;;;;;5046425;28;20201;-78
2023/07/18 00:53:56;;;;;;;1.97;1.47;;;18.90;63.10;;;;;;5039666;28;20429;-79
2023/07/18 00:56:22;;;;;;;5.73;1.80;;;18.80;63.50;;;;;;5024309;28;20492;-78
2023/07/18 00:58:48;;;;;;;3.50;2.00;;;18.80;64.80;;;;;;5033532;28;20449;-81
2023/07/18 01:01:14;;;;;;;4.33;2.27;;;18.70;63.80;;;;;;5032751;28;20994;-81
2023/07/18 01:03:40;;;;;;;5.10;2.50;;;18.70;65.70;;;;;;5036803;28;20474;-82
2023/07/18 01:06:06;;;;;;;4.20;2.40;;;18.70;66.00;;;;;;5032529;28;20211;-82
2023/07/18 01:08:32;;;;;;;4.40;2.30;;;18.70;67.30;;;;;;5037257;28;20439;-80
2023/07/18 01:10:57;;;;;;;7.53;2.33;;;18.50;67.70;;;;;;5040295;28;20474;-81
2023/07/18 01:13:23;;;;;;;4.77;2.50;;;18.40;67.90;;;;;;5046575;28;20237;-80
2023/07/18 01:15:49;;;;;;;4.03;2.20;;;18.20;67.90;;;;;;5041076;28;20222;-80
2023/07/18 01:18:14;;;;;;;3.93;2.17;;;18.00;68.80;;;;;;5037214;28;20190;-80
2023/07/18 01:20:44;;;;;;;3.90;2.17;;;18.00;68.80;;;;;;5051296;28;20208;-80
2023/07/18 01:23:10;;;;;;;3.90;2.33;;;18.00;68.90;;;;;;5044752;28;20180;-79
2023/07/18 01:25:36;;;;;;;3.83;2.40;;;18.00;68.90;;;;;;5025273;28;20483;-79
2023/07/18 01:28:03;;;;;;;3.10;1.90;;;17.90;68.90;;;;;;5026770;28;20191;-80
2023/07/18 01:30:29;;;;;;;5.37;2.17;;;18.00;68.90;;;;;;5026565;28;20978;-81
2023/07/18 01:32:56;;;;;;;3.83;1.90;;;17.90;68.80;;;;;;5033610;28;20857;-83
2023/07/18 01:35:25;;;;;;;2.70;1.70;;;17.90;68.90;;;;;;5031861;28;20463;-82
2023/07/18 01:37:51;;;;;;;5.87;2.50;;;17.90;69.10;;;;;;5024897;28;20448;-82
2023/07/18 01:40:21;;;;;;;4.00;1.90;;;17.80;69.20;;;;;;5033244;28;20456;-83
2023/07/18 01:42:54;;;;;;;4.83;1.90;;;17.80;69.20;;;;;;5043381;28;20441;-82
2023/07/18 01:45:22;;;;;;;4.70;2.30;;;17.80;69.40;;;;;;5039082;28;20428;-82
2023/07/18 01:47:49;;;;;;;5.10;1.80;;;17.60;69.70;;;;;;5037783;28;20988;-85
2023/07/18 01:50:15;;;;;;;4.03;1.90;;;17.60;69.50;;;;;;5026994;28;20953;-79
2023/07/18 01:52:41;;;;;;;5.50;2.10;;;17.50;69.70;;;;;;5029875;28;20436;-80
2023/07/18 01:55:07;;;;;;;4.13;1.87;;;17.50;69.70;;;;;;5026735;28;20479;-78
2023/07/18 01:57:35;;;;;;;5.60;2.30;;;17.50;69.80;;;;;;5031495;28;20861;-79
2023/07/18 02:00:02;;;;;;;8.50;2.10;;;17.50;69.70;;;;;;5027155;28;20511;-80
2023/07/18 02:02:28;;;;;;;3.30;2.10;;;17.50;69.70;;;;;;5028267;28;20459;-81
2023/07/18 02:04:55;;;;;;;3.97;2.20;;;17.60;69.20;;;;;;5031570;28;20751;-80
2023/07/18 02:07:21;;;;;;;5.20;2.40;;;17.50;69.10;;;;;;5025153;28;20445;-80
2023/07/18 02:09:49;;;;;;;5.87;1.93;;;17.50;69.20;;;;;;5030884;28;20820;-81
2023/07/18 02:12:15;;;;;;;4.43;2.10;;;17.50;69.20;;;;;;5040505;28;20930;-80
2023/07/18 02:14:41;;;;;;;5.97;2.27;;;17.50;68.90;;;;;;5036316;28;20450;-79
2023/07/18 02:17:08;;;;;;;9.53;2.10;;;17.40;69.10;;;;;;5027172;28;20448;-79
2023/07/18 02:19:35;;;;;;;5.63;2.20;;;17.40;69.10;;;;;;5020803;28;20430;-83
2023/07/18 02:22:01;;;;;;;2.93;1.97;;;17.40;68.80;;;;;;5027755;28;20460;-79
2023/07/18 02:24:27;;;;;;;4.00;1.73;;;17.50;68.80;;;;;;5038941;28;20429;-80
2023/07/18 02:26:56;;;;;;;4.40;2.10;;;17.50;68.90;;;;;;5029955;28;20443;-79
2023/07/18 02:29:21;;;;;;;4.60;2.13;;;17.40;69.10;;;;;;5023308;28;20189;-80
2023/07/18 02:31:47;;;;;;;4.17;1.97;;;17.40;68.90;;;;;;5030812;28;20539;-79
2023/07/18 02:34:13;;;;;;;4.77;2.40;;;17.40;69.40;;;;;;5030191;28;20212;-79
2023/07/18 02:36:39;;;;;;;5.40;2.20;;;17.40;69.50;;;;;;5025889;28;20542;-80
2023/07/18 02:39:07;;;;;;;4.30;2.10;;;17.30;69.50;;;;;;5027383;28;20186;-80
2023/07/18 02:41:33;;;;;;;6.47;2.10;;;17.30;69.80;;;;;;5028056;28;20213;-80
2023/07/18 02:43:59;;;;;;;3.40;1.87;;;17.20;69.90;;;;;;5036414;28;20440;-81
2023/07/18 02:46:25;;;;;;;6.40;2.80;;;17.20;70.20;;;;;;5027743;28;20960;-82
2023/07/18 02:48:50;;;;;;;3.53;1.97;;;17.10;70.40;;;;;;5026694;28;20177;-80
2023/07/18 02:51:16;;;;;;;5.40;2.10;;;17.00;70.70;;;;;;5044643;28;20478;-81
2023/07/18 02:53:42;;;;;;;3.00;2.03;;;16.90;71.00;;;;;;5026592;28;20660;-81
2023/07/18 02:56:08;;;;;;;4.77;2.37;;;16.90;71.00;;;;;;5031418;28;20504;-81
2023/07/18 02:58:35;;;;;;;4.20;2.10;;;16.90;70.80;;;;;;5026615;28;20444;-82
2023/07/18 03:01:00;;;;;;;2.70;1.90;;;17.00;70.80;;;;;;5032928;28;20547;-82
2023/07/18 03:03:27;;;;;;;3.90;2.30;;;16.90;71.00;;;;;;5034389;28;20421;-83
2023/07/18 03:05:53;;;;;;;5.93;2.50;;;17.00;71.00;;;;;;5025680;28;20217;-81
2023/07/18 03:08:19;;;;;;;4.70;1.90;;;16.90;71.30;;;;;;5022934;28;20432;-80
2023/07/18 03:10:47;;;;;;;3.47;1.97;;;16.70;71.30;;;;;;5024862;28;20469;-80
2023/07/18 03:13:13;;;;;;;4.10;2.27;;;16.60;71.30;;;;;;5026410;28;20469;-81
2023/07/18 03:15:39;;;;;;;6.40;2.17;;;16.60;71.30;;;;;;5021182;28;20488;-83
2023/07/18 03:18:08;;;;;;;3.90;2.40;;;16.60;71.30;;;;;;5022973;28;20439;-80
2023/07/18 03:20:34;;;;;;;5.57;2.50;;;16.60;71.30;;;;;;5024183;28;20989;-79
2023/07/18 03:23:00;;;;;;;9.40;2.43;;;16.70;71.10;;;;;;5024748;28;20435;-79
2023/07/18 03:25:25;;;;;;;6.50;2.60;;;16.70;71.10;;;;;;5020299;28;20181;-82
2023/07/18 03:27:52;;;;;;;6.90;2.27;;;16.70;71.30;;;;;;5029880;28;20265;-82
2023/07/18 03:30:18;;;;;;;8.90;1.90;;;16.70;71.30;;;;;;5033370;28;20216;-81
2023/07/18 03:32:44;;;;;;;4.00;2.00;;;16.80;71.30;;;;;;5027321;28;20428;-79
2023/07/18 03:35:14;;;;;;;6.50;2.90;;;16.70;71.30;;;;;;5031259;28;20482;-80
2023/07/18 03:37:40;;;;;;;6.47;2.47;;;16.70;71.40;;;;;;5030727;28;20313;-82
2023/07/18 03:40:06;;;;;;;4.10;2.03;;;16.60;71.40;;;;;;5038469;28;20471;-79
2023/07/18 03:42:33;;;;;;;3.40;1.80;;;16.60;71.30;;;;;;5032385;28;20415;-84
2023/07/18 03:44:58;;;;;;;4.30;1.90;;;16.70;70.70;;;;;;5040035;28;20436;-79
2023/07/18 03:47:24;;;;;;;2.70;1.80;;;16.70;70.20;;;;;;5032955;28;20435;-77
2023/07/18 03:49:50;;;;;;;3.57;2.00;;;16.80;69.90;;;;;;5014153;28;20256;-76
2023/07/18 03:52:16;;;;;;;4.13;2.00;;;16.80;69.90;;;;;;5030755;28;20192;-76
2023/07/18 03:54:42;;;;;;;4.17;2.10;;;16.90;69.50;;;;;;5024838;28;20437;-76
2023/07/18 03:57:07;;;;;;;6.90;2.10;;;16.90;69.40;;;;;;5027610;28;20208;-76
2023/07/18 03:59:33;;;;;;;4.37;2.00;;;16.90;69.70;;;;;;5025445;28;20569;-77
2023/07/18 04:01:59;;;;;;;2.97;1.90;;;17.00;69.80;;;;;;5025333;28;20195;-77
2023/07/18 04:04:24;;;;;;;4.30;2.27;;;17.00;70.20;;;;;;5024661;28;20193;-76
2023/07/18 04:06:50;;;;;;;5.20;2.40;;;17.00;71.10;;;;;;5024900;28;20300;-76
2023/07/18 04:09:16;;;;;;;7.03;2.63;;;16.80;71.60;;;;;;5028948;28;20208;-76
2023/07/18 04:11:43;;;;;;;7.73;2.47;;;16.70;71.60;;;;;;5031125;28;20243;-77
2023/07/18 04:14:09;;;;;;;3.53;2.53;;;16.80;71.30;;;;;;5037490;28;20207;-78
2023/07/18 04:16:35;;;;;;;4.20;2.50;;;16.80;71.30;;;;;;5030309;28;20494;-76
2023/07/18 04:19:01;;;;;;;4.70;2.23;;;16.70;71.40;;;;;;5025512;28;20207;-75
2023/07/18 04:21:27;;;;;;;3.53;2.33;;;16.60;71.60;;;;;;5022716;28;20926;-77
2023/07/18 04:23:52;;;;;;;3.50;2.30;;;16.60;71.40;;;;;;5028081;28;20192;-75
2023/07/18 04:26:18;;;;;;;5.77;2.10;;;16.60;71.40;;;;;;5024785;28;20224;-78
2023/07/18 04:28:43;;;;;;;4.10;2.20;;;16.50;71.60;;;;;;5029265;28;20196;-76
2023/07/18 04:31:09;;;;;;;5.17;2.23;;;16.50;71.40;;;;;;5022730;28;20216;-77
2023/07/18 04:33:36;;;;;;;6.13;3.10;;;16.50;71.30;;;;;;5018728;28;20188;-78
2023/07/18 04:36:04;;;;;;;3.73;2.47;;;16.40;71.60;;;;;;5023679;28;20337;-77
2023/07/18 04:38:30;;;;;;;3.73;2.23;;;16.50;71.60;;;;;;5022066;28;20442;-78
2023/07/18 04:40:55;;;;;;;4.90;2.90;;;16.60;71.30;;;;;;5023684;28;20475;-72
2023/07/18 04:43:21;;;;;;;6.00;2.50;;;16.70;71.00;;;;;;5022451;28;20961;-72
2023/07/18 04:45:47;;;;;;;5.63;2.77;;;16.80;70.80;;;;;;5024278;28;20198;-71
2023/07/18 04:48:14;;;;;;;4.07;2.30;;;16.80;71.00;;;;;;5022327;28;20193;-73
2023/07/18 04:50:44;;;;;;;4.80;2.97;;;16.70;71.10;;;;;;5022795;28;20459;-72
2023/07/18 04:53:10;;;;;;;5.00;2.43;;;16.70;71.30;;;;;;5028077;28;20416;-71
2023/07/18 04:55:37;;;;;;;5.90;2.50;;;17.00;70.80;;;;;;5021562;28;20885;-72
2023/07/18 04:58:05;;;;;;;7.23;2.30;;;17.00;70.70;;;;;;5025765;28;20504;-74
2023/07/18 05:00:31;;;;;;;5.50;2.37;;;17.00;70.80;;;;;;5018617;28;20479;-72
2023/07/18 05:02:58;;;;;;;4.40;2.60;;;17.00;70.70;;;;;;5018132;28;20818;-72
2023/07/18 05:05:28;;;;;;;5.90;2.40;;;17.00;70.70;;;;;;5015838;28;20941;-74
2023/07/18 05:07:58;;;;;;;5.33;2.30;;;17.00;70.80;;;;;;5018717;28;20563;-75
2023/07/18 05:10:25;;;;;;;5.17;2.43;;;17.10;70.80;;;;;;5020799;28;20472;-74
2023/07/18 05:12:51;;;;;;;5.70;2.23;;;17.10;70.70;;;;;;5026636;28;20869;-73
2023/07/18 05:15:18;;;;;;;6.60;2.30;;;17.20;70.50;;;;;;5027776;28;20471;-81
2023/07/18 05:17:43;;;;;;;5.33;2.53;;;17.20;70.70;;;;;;5028402;28;20453;-83
2023/07/18 05:20:13;;;;;;;4.23;2.20;;;17.40;70.40;;;;;;5028440;28;20478;-82
2023/07/18 05:22:39;;;;;;;4.40;2.60;;;17.50;70.10;;;;;;5034585;28;20212;-82
2023/07/18 05:25:09;;;;;;;9.10;2.97;;;17.50;70.20;;;;;;5030419;28;20435;-80
2023/07/18 05:27:35;;;;;;;5.90;2.47;;;17.60;70.40;;;;;;5029944;28;20436;-80
2023/07/18 05:30:01;;;;;;;9.80;3.37;;;17.70;70.20;;;;;;5030375;28;20460;-81
2023/07/18 05:32:27;;;;;;;6.93;3.70;;;17.80;70.40;;;;;;5035155;28;20564;-82
2023/07/18 05:34:53;;;;;;;13.27;4.70;;;18.00;70.50;;;;;;5029531;28;20517;-81
2023/07/18 05:37:21;;;;;;;9.53;4.67;;;18.10;70.70;;;;;;5029041;28;20199;-80
2023/07/18 05:39:46;;;;;;;10.70;4.60;;;18.10;70.70;;;;;;5036734;28;20202;-82
2023/07/18 05:42:12;;;;;;;9.20;4.70;;;18.20;71.00;;;;;;5042026;28;20439;-81
2023/07/18 05:44:37;;;;;;;9.17;4.37;;;18.30;71.00;;;;;;5034544;28;20253;-80
2023/07/18 05:47:04;;;;;;;12.47;4.70;;;18.40;70.80;;;;;;5032214;28;20649;-82
2023/07/18 05:49:29;;;;;;;11.90;4.90;;;18.50;70.50;;;;;;5041098;28;20270;-81
2023/07/18 05:51:55;;;;;;;7.83;4.40;;;18.50;70.70;;;;;;5047333;28;20461;-81
2023/07/18 05:54:21;;;;;;;9.30;4.40;;;18.50;70.80;;;;;;5041167;28;20190;-81
2023/07/18 05:56:47;;;;;;;13.83;5.80;;;18.60;70.70;;;;;;5035661;28;20309;-81
2023/07/18 05:59:12;;;;;;;11.47;5.27;;;18.70;70.50;;;;;;5029307;28;20223;-80
2023/07/18 06:01:38;;;;;;;10.13;5.37;;;18.70;70.50;;;;;;5036937;28;20466;-82
2023/07/18 06:04:03;;;;;;;10.60;4.67;;;18.80;70.50;;;;;;5049218;28;20200;-80
2023/07/18 06:06:31;;;;;;;11.73;4.50;;;18.90;70.20;;;;;;5052952;28;20675;-80
2023/07/18 06:08:56;;;;;;;6.90;4.20;;;18.90;70.10;;;;;;5041025;28;20197;-81
2023/07/18 06:11:22;;;;;;;13.13;4.73;;;19.00;69.90;;;;;;5046619;28;20567;-80
2023/07/18 06:13:51;;;;;;;9.00;5.50;;;19.10;69.70;;;;;;5043097;28;20235;-82
2023/07/18 06:16:17;;;;;;;17.83;5.40;;;19.10;69.70;;;;;;5021761;28;20735;-80
2023/07/18 06:18:42;;;;;;;18.23;6.10;;;19.00;69.90;;;;;;5036454;28;20554;-81
2023/07/18 06:21:08;;;;;;;15.43;5.57;;;18.80;70.50;;;;;;5024642;28;20220;-81
2023/07/18 06:23:34;;;;;;;11.63;5.20;;;18.70;70.80;;;;;;5023526;28;20185;-81
2023/07/18 06:26:00;;;;;;;9.33;4.90;;;18.90;70.40;;;;;;5030210;28;20208;-81
2023/07/18 06:28:25;;;;;;;9.53;4.67;;;19.00;70.40;;;;;;5030493;28;20196;-80
2023/07/18 06:30:55;;;;;;;10.20;4.10;;;19.00;70.20;;;;;;5036016;28;20234;-83
2023/07/18 06:33:21;;;;;;;7.03;4.43;;;19.10;69.80;;;;;;5035931;28;20248;-83
2023/07/18 06:35:55;;;;;;;7.03;4.00;;;19.20;69.10;;;;;;5027949;28;20486;-83
2023/07/18 06:38:21;;;;;;;6.70;3.50;;;19.20;69.40;;;;;;5026533;28;20442;-80
2023/07/18 06:40:50;;;;;;;8.47;4.20;;;19.40;68.20;;;;;;5027745;28;20462;-80
2023/07/18 06:43:16;;;;;;;14.33;5.43;;;19.50;68.90;;;;;;5029422;28;20185;-80
2023/07/18 06:45:46;;;;;;;9.50;5.30;;;19.70;68.80;;;;;;5028479;28;20427;-81
2023/07/18 06:48:16;;;;;;;8.67;4.77;;;19.60;68.80;;;;;;5029118;28;20435;-80
2023/07/18 06:50:46;;;;;;;13.07;4.83;;;19.70;68.30;;;;;;5028400;28;20556;-82
2023/07/18 06:53:13;;;;;;;8.43;5.00;;;19.70;68.30;;;;;;5032034;28;20495;-79
2023/07/18 06:55:41;;;;;;;8.00;3.57;;;19.90;67.60;;;;;;5025138;28;20488;-79
2023/07/18 06:58:08;;;;;;;8.80;3.20;;;20.00;66.90;;;;;;5034118;28;20420;-80
2023/07/18 07:00:34;;;;;;;6.97;3.43;;;20.00;65.00;;;;;;5028749;28;20463;-80
2023/07/18 07:02:59;;;;;;;8.27;4.03;;;20.20;65.30;;;;;;5036031;28;20434;-80
2023/07/18 07:05:25;;;;;;;9.50;4.20;;;20.20;65.60;;;;;;5029828;28;20289;-79
2023/07/18 07:07:51;;;;;;;6.93;4.30;;;20.30;65.80;;;;;;5027326;28;20189;-81
2023/07/18 07:10:17;;;;;;;8.17;3.33;;;20.20;65.70;;;;;;5040440;28;20276;-79
2023/07/18 07:12:43;;;;;;;9.90;4.50;;;20.30;65.10;;;;;;5039496;28;20437;-78
2023/07/18 07:15:10;;;;;;;5.43;3.70;;;20.40;64.70;;;;;;5035760;28;20532;-79
2023/07/18 07:17:36;;;;;;;11.90;4.87;;;20.50;64.40;;;;;;5036508;28;20192;-79
2023/07/18 07:20:01;;;;;;;9.10;4.13;;;20.70;64.40;;;;;;5039083;28;20574;-78
2023/07/18 07:22:27;;;;;;;13.87;3.90;;;20.80;63.80;;;;;;5046649;28;20194;-80
2023/07/18 07:24:53;;;;;;;7.90;3.10;;;21.00;63.50;;;;;;5042980;28;20176;-79
2023/07/18 07:27:19;;;;;;;6.00;3.20;;;21.00;63.20;;;;;;5038177;28;20188;-80
2023/07/18 07:29:45;;;;;;;10.10;3.63;;;21.10;63.10;;;;;;5038751;28;20523;-79
2023/07/18 07:32:11;;;;;;;6.97;3.47;;;21.20;62.90;;;;;;5037292;28;20223;-79
2023/07/18 07:34:36;;;;;;;7.77;3.30;;;21.20;62.90;;;;;;5044690;28;20197;-79
2023/07/18 07:37:02;;;;;;;6.00;3.60;;;21.30;63.10;;;;;;5028611;28;20236;-79
2023/07/18 07:39:28;;;;;;;8.00;3.50;;;21.40;62.30;;;;;;5030150;28;20676;-80
2023/07/18 07:41:53;;;;;;;5.43;3.20;;;21.50;62.50;;;;;;5044856;28;20184;-80
2023/07/18 07:44:19;;;;;;;6.50;3.40;;;21.20;62.00;;;;;;5042087;28;20187;-81
2023/07/18 07:46:45;;;;;;;7.37;4.00;;;21.30;62.30;;;;;;5038549;28;20195;-80
2023/07/18 07:49:11;;;;;;;6.40;3.20;;;21.40;61.90;;;;;;5037606;28;20203;-80
2023/07/18 07:51:37;;;;;;;10.47;3.80;;;21.50;61.60;;;;;;5028578;28;20336;-79
2023/07/18 07:54:03;;;;;;;5.93;3.60;;;21.60;61.30;;;;;;5034004;28;20488;-79
2023/07/18 07:56:28;;;;;;;7.67;3.73;;;21.60;60.90;;;;;;5034626;28;20233;-80
2023/07/18 07:58:54;;;;;;;6.63;3.50;;;21.70;60.10;;;;;;5034720;28;20589;-79
2023/07/18 08:01:20;;;;;;;9.23;3.80;;;21.80;60.10;;;;;;5035263;28;20208;-80
2023/07/18 08:03:45;;;;;;;8.43;3.40;;;21.90;60.10;;;;;;5036353;28;20374;-79
2023/07/18 08:06:11;;;;;;;9.23;3.30;;;21.80;60.00;;;;;;5028147;28;20216;-79
2023/07/18 08:08:37;;;;;;;6.13;3.27;;;22.00;60.60;;;;;;5028210;28;20228;-79
2023/07/18 08:11:03;;;;;;;7.87;4.17;;;22.00;59.90;;;;;;5031165;28;20220;-80
2023/07/18 08:13:29;;;;;;;6.93;2.90;;;22.10;60.10;;;;;;5028978;28;20199;-78
2023/07/18 08:15:55;;;;;;;9.33;3.40;;;22.20;59.30;;;;;;5029268;28;20555;-81
2023/07/18 08:18:21;;;;;;;9.30;3.10;;;22.30;59.50;;;;;;5034111;28;20288;-80
2023/07/18 08:20:47;;;;;;;6.30;3.33;;;22.50;58.70;;;;;;5032603;28;20537;-80
2023/07/18 08:23:14;;;;;;;10.03;3.37;;;22.50;58.50;;;;;;5033952;28;20190;-79
2023/07/18 08:25:43;;;;;;;6.87;3.23;;;22.50;58.10;;;;;;5022365;28;20438;-80
2023/07/18 08:28:09;;;;;;;7.90;3.30;;;22.60;57.80;;;;;;5022644;28;20432;-79
2023/07/18 08:30:35;;;;;;;6.10;3.43;;;22.80;57.30;;;;;;5025221;28;20585;-80
2023/07/18 08:33:01;;;;;;;7.20;2.93;;;22.90;57.40;;;;;;5031571;28;20463;-80
2023/07/18 08:35:26;;;;;;;13.13;3.60;;;22.90;56.90;;;;;;5031890;28;20230;-80
2023/07/18 08:37:53;;;;;;;5.13;3.00;;;22.80;57.20;;;;;;5026939;28;20186;-81
2023/07/18 08:40:18;;;;;;;7.57;3.40;;;22.80;56.90;;;;;;5027448;28;20221;-80
2023/07/18 08:42:45;;;;;;;10.03;3.43;;;23.00;57.40;;;;;;5029148;28;20430;-81
2023/07/18 08:45:13;;;;;;;7.20;3.57;;;23.10;57.00;;;;;;5034467;28;20653;-80
2023/07/18 08:47:41;;;;;;;11.43;3.20;;;23.20;57.20;;;;;;5021798;28;20964;-82
2023/07/18 08:50:10;;;;;;;10.27;4.00;;;23.30;56.40;;;;;;5032166;28;20551;-79
2023/07/18 08:52:36;;;;;;;6.97;3.33;;;23.40;55.80;;;;;;5030670;28;20439;-79
2023/07/18 08:55:04;;;;;;;7.90;3.50;;;23.50;55.60;;;;;;5030955;28;20585;-80
2023/07/18 08:57:30;;;;;;;5.63;3.37;;;23.60;55.40;;;;;;5040135;28;20501;-80
2023/07/18 08:59:59;;;;;;;8.23;3.27;;;23.70;55.40;;;;;;5033053;28;20987;-80
2023/07/18 09:02:25;;;;;;;4.97;2.97;;;23.70;54.50;;;;;;5031241;28;20496;-80
2023/07/18 09:04:50;;;;;;;4.93;3.13;;;23.60;54.90;;;;;;5029944;28;20439;-78
2023/07/18 09:07:19;;;;;;;7.83;3.80;;;23.80;54.40;;;;;;5028881;28;20257;-80
2023/07/18 09:09:46;;;;;;;6.33;3.90;;;23.80;54.50;;;;;;5037455;28;20205;-82
2023/07/18 09:12:13;;;;;;;6.93;3.63;;;23.60;54.50;;;;;;5036814;28;20437;-80
2023/07/18 09:14:39;;;;;;;8.80;3.10;;;23.50;55.30;;;;;;5028246;28;20438;-80
2023/07/18 09:17:07;;;;;;;7.43;3.20;;;23.60;55.60;;;;;;5037242;28;20477;-78
2023/07/18 09:19:48;;;;;;;7.30;3.60;;;23.70;54.90;;;;;;5038589;28;20200;-78
2023/07/18 09:22:17;;;;;;;8.70;3.20;;;23.90;54.80;;;;;;5044267;28;20512;-79
2023/07/18 09:24:43;;;;;;;7.47;4.00;;;24.10;54.00;;;;;;5040178;28;21055;-79
2023/07/18 09:27:19;;;;;;;7.77;3.83;;;24.20;53.70;;;;;;5029689;28;20439;-79
2023/07/18 09:29:46;;;;;;;6.00;3.70;;;24.30;53.00;;;;;;5022028;28;20941;-79
2023/07/18 09:32:19;;;;;;;15.50;4.27;;;24.40;52.80;;;;;;5031232;28;20439;-80
2023/07/18 09:35:15;;;;;;;5.63;3.60;;;24.50;52.80;;;;;;5024945;28;20930;-80
2023/07/18 09:37:48;;;;;;;12.47;3.50;;;24.50;52.60;;;;;;4994733;28;21193;-81
2023/07/18 09:40:15;;;;;;;6.90;3.77;;;24.40;53.20;;;;;;4986275;28;20483;-80
2023/07/18 09:42:50;;;;;;;5.07;2.83;;;24.40;53.20;;;;;;4996562;28;20438;-79
2023/07/18 09:45:16;;;;;;;7.03;2.50;;;24.50;52.20;;;;;;4995488;28;20510;-80
2023/07/18 09:47:43;;;;;;;6.10;3.20;;;24.80;52.00;;;;;;4988993;28;20978;-79
2023/07/18 09:50:10;;;;;;;8.83;3.83;;;24.90;51.60;;;;;;4994935;28;20621;-79
2023/07/18 09:52:40;;;;;;;6.03;3.13;;;25.00;50.70;;;;;;4998927;28;20423;-79
2023/07/18 09:55:11;;;;;;;9.13;3.80;;;25.00;51.30;;;;;;4997882;28;20459;-80
2023/07/18 09:57:40;;;;;;;10.20;3.73;;;25.20;51.20;;;;;;4997073;28;20507;-81
2023/07/18 10:00:25;;;;;;;4.50;3.07;;;25.60;50.60;;;;;;4996324;28;20483;-79
2023/07/18 10:02:54;;;;;;;8.33;3.53;;;25.60;50.20;;;;;;4999792;28;20436;-80
2023/07/18 10:05:20;;;;;;;7.53;3.20;;;25.80;49.50;;;;;;4995569;28;20448;-80
2023/07/18 10:07:47;;;;;;;9.00;4.37;;;25.70;49.80;;;;;;4995661;28;20484;-80
2023/07/18 10:10:13;;;;;;;6.80;3.20;;;26.20;49.10;;;;;;4994025;28;20939;-80
2023/07/18 10:12:54;;;;;;;7.60;3.27;;;26.30;47.90;;;;;;4988489;28;20440;-80
2023/07/18 10:15:19;;;;;;;4.70;3.30;;;26.20;48.30;;;;;;5028161;28;20494;-81
2023/07/18 10:17:47;;;;;;;5.03;3.40;;;26.00;48.70;;;;;;5027705;28;20443;-80
2023/07/18 10:20:34;;;;;;;6.50;3.30;;;26.10;49.10;;;;;;5024583;28;20331;-80
2023/07/18 10:23:00;;;;;;;6.03;3.00;;;26.40;48.50;;;;;;5032758;28;20463;-79
2023/07/18 10:25:29;;;;;;;6.33;3.60;;;26.30;49.10;;;;;;5028683;28;20448;-80
2023/07/18 10:27:55;;;;;;;8.63;4.23;;;26.50;49.00;;;;;;5032634;28;20827;-80
2023/07/18 10:30:22;;;;;;;7.80;3.37;;;26.50;49.40;;;;;;5028274;28;20469;-80
2023/07/18 10:32:56;;;;;;;4.87;3.27;;;26.50;48.70;;;;;;5032402;28;20460;-80
2023/07/18 10:35:27;;;;;;;7.80;3.70;;;26.50;49.10;;;;;;5032985;28;20471;-80
2023/07/18 10:37:56;;;;;;;8.73;4.60;;;26.30;49.30;;;;;;5023610;28;20502;-79
2023/07/18 10:40:36;;;;;;;13.20;3.80;;;26.10;50.30;;;;;;5033847;28;20467;-80
2023/07/18 10:43:06;;;;;;;8.63;4.60;;;26.00;50.30;;;;;;5041205;28;20472;-82
2023/07/18 10:45:40;;;;;;;8.53;3.37;;;25.90;50.70;;;;;;5034465;28;20427;-79
2023/07/18 10:48:11;;;;;;;7.23;3.63;;;26.10;50.60;;;;;;5035380;28;20441;-80
2023/07/18 10:50:37;;;;;;;5.47;3.50;;;26.30;50.20;;;;;;5037036;28;20462;-80
2023/07/18 10:53:03;;;;;;;6.40;3.67;;;26.50;48.70;;;;;;5031113;28;20471;-80
2023/07/18 10:55:28;;;;;;;9.67;3.50;;;26.30;49.10;;;;;;5022686;28;20222;-80
2023/07/18 10:57:55;;;;;;;6.97;3.40;;;26.20;49.10;;;;;;5024849;28;20525;-79
2023/07/18 11:00:24;;;;;;;8.00;3.87;;;26.50;49.40;;;;;;5027015;28;20228;-78
2023/07/18 11:02:50;;;;;;;7.27;3.50;;;26.90;48.90;;;;;;5031019;28;20881;-79
2023/07/18 11:05:16;;;;;;;8.47;3.87;;;27.50;46.30;;;;;;5028492;28;20476;-80
2023/07/18 11:07:47;;;;;;;6.83;3.67;;;27.40;47.00;;;;;;5036474;28;20943;-78
2023/07/18 11:10:14;;;;;;;7.57;3.87;;;27.50;46.90;;;;;;5027550;28;20216;-78
2023/07/18 11:12:40;;;;;;;7.87;3.73;;;27.40;46.50;;;;;;5022632;28;20436;-79
2023/07/18 11:15:08;;;;;;;10.40;3.73;;;27.10;47.10;;;;;;5036277;28;20501;-78
2023/07/18 11:17:35;;;;;;;5.53;3.40;;;26.90;47.70;;;;;;5026459;28;20419;-82
2023/07/18 11:20:02;;;;;;;6.03;3.93;;;26.80;48.30;;;;;;5029453;28;20469;-79
2023/07/18 11:22:29;;;;;;;11.57;4.20;;;26.60;49.00;;;;;;5049137;28;20430;-79
2023/07/18 11:24:55;;;;;;;7.30;4.13;;;26.30;49.40;;;;;;5045842;28;20434;-81
2023/07/18 11:27:25;;;;;;;6.60;3.93;;;26.20;50.20;;;;;;5038407;28;20515;-78
2023/07/18 11:30:03;;;;;;;4.90;3.27;;;26.20;49.90;;;;;;5034731;28;20473;-79
2023/07/18 11:32:32;;;;;;;9.07;4.17;;;26.20;50.10;;;;;;5036335;28;20537;-78
2023/07/18 11:34:59;;;;;;;6.43;3.60;;;26.20;50.30;;;;;;5037219;28;20443;-78
2023/07/18 11:37:25;;;;;;;8.20;3.50;;;26.20;50.50;;;;;;5024812;28;20463;-79
2023/07/18 11:39:51;;;;;;;14.60;3.97;;;26.10;50.90;;;;;;5021612;28;20454;-80
2023/07/18 11:42:17;;;;;;;8.10;4.40;;;26.10;51.40;;;;;;5027962;28;20435;-79
2023/07/18 11:44:43;;;;;;;7.20;3.93;;;26.00;52.10;;;;;;5033313;28;20214;-80
2023/07/18 11:47:12;;;;;;;7.33;3.70;;;25.90;52.60;;;;;;5028962;28;20434;-79
2023/07/18 11:49:39;;;;;;;6.87;3.83;;;25.90;52.90;;;;;;5029755;28;20435;-79
2023/07/18 11:52:08;;;;;;;9.43;3.97;;;25.80;53.40;;;;;;5040287;28;20434;-78
2023/07/18 11:54:35;;;;;;;8.40;3.97;;;25.80;53.80;;;;;;5036213;28;20434;-78
2023/07/18 11:57:03;;;;;;;7.57;4.10;;;25.90;55.80;;;;;;5042501;28;20490;-78
2023/07/18 11:59:29;;;;;;;5.37;3.67;;;26.10;55.60;;;;;;5033482;28;20956;-77
2023/07/18 12:01:55;;;;;;;6.80;4.00;;;26.40;54.60;;;;;;5025629;28;20973;-79
2023/07/18 12:04:21;;;;;;;6.43;3.87;;;26.60;55.00;;;;;;5028705;28;20493;-78
2023/07/18 12:06:47;;;;;;;7.30;3.90;;;26.70;55.30;;;;;;5023039;28;20219;-78
2023/07/18 12:09:13;;;;;;;6.50;4.20;;;26.90;55.80;;;;;;5026294;28;20258;-78
2023/07/18 12:11:39;;;;;;;8.60;3.50;;;27.10;52.90;;;;;;5028864;28;20463;-79
2023/07/18 12:14:06;;;;;;;12.23;4.47;;;27.20;53.30;;;;;;5037476;28;20434;-80
2023/07/18 12:16:32;;;;;;;8.60;4.10;;;27.40;53.20;;;;;;5029668;28;20236;-80
2023/07/18 12:18:58;;;;;;;6.83;3.90;;;27.50;52.50;;;;;;5025977;28;20444;-78
2023/07/18 12:21:23;;;;;;;5.63;3.33;;;27.40;53.20;;;;;;5022001;28;20494;-79
2023/07/18 12:23:49;;;;;;;8.50;4.13;;;27.50;52.60;;;;;;5036600;28;20257;-79
2023/07/18 12:26:15;;;;;;;5.50;3.80;;;27.70;52.20;;;;;;5031385;28;20710;-78
2023/07/18 12:28:41;;;;;;;7.20;4.30;;;27.90;51.70;;;;;;5034682;28;20193;-78
2023/07/18 12:31:07;;;;;;;7.40;3.80;;;28.00;51.00;;;;;;5026113;28;20467;-78
2023/07/18 12:33:33;;;;;;;11.00;4.00;;;28.00;51.00;;;;;;5035872;28;20536;-79
2023/07/18 12:35:59;;;;;;;9.70;4.20;;;28.10;51.20;;;;;;5036112;28;20575;-78
2023/07/18 12:38:25;;;;;;;8.70;4.60;;;28.10;51.30;;;;;;5029284;28;20904;-79
2023/07/18 12:40:50;;;;;;;7.77;3.63;;;28.20;51.30;;;;;;5035607;28;20231;-79
2023/07/18 12:43:16;;;;;;;6.53;4.17;;;28.50;50.90;;;;;;5038001;28;20190;-78